Weather History for Wahoo, NE

Change the Weather History Date:

Monday, September 16, 2013

  Actual Average Record
Temperature  
Mean Temperature 62 °F -  
Max Temperature 69 °F 74 °F 90 °F (1972)
Min Temperature 54 °F 51 °F 31 °F (1993)
Degree Days  
Heating Degree Days 4    
Growing Degree Days 12 (Base 50)    
Moisture  
Dew Point 53 °F    
Average Humidity 75    
Maximum Humidity 93    
Minimum Humidity 55    
Precipitation  
Precipitation 0.18 in - - ()
Sea Level Pressure  
Sea Level Pressure 30.26 in    
Wind  
Wind Speed 7 mph (East)    
Max Wind Speed 15 mph    
Max Gust Speed 20 mph    
Visibility 10 miles    
Events Rain    
Averages and records for this station are not official NWS values.
T = Trace of Precipitation, MM = Missing Value Source: NWS Daily Summary

Daily Weather History Graph

Daily Weather History Graph

Search for Another Location

Airport:

Trip Planner

Search our weather history database for the weather conditions in past years. The results will help you decide how hot, cold, wet, or windy it might be!

Date:

Astronomy

Sep. 16, 2013 Rise Set
Actual Time 7:08 AM CDT 7:33 PM CDT
Civil Twilight 6:40 AM CDT 8:01 PM CDT
Nautical Twilight 6:07 AM CDT 8:33 PM CDT
Astronomical Twilight 5:34 AM CDT 9:06 PM CDT
Moon 5:44 PM CDT (9/16) 3:54 AM CDT (9/16)
Length of Visible Light 13h 20m
Length of Day
12h 25m
Waxing Gibbous, 90% of the Moon is Illuminated
Sep 16
Waxing Gibbous
Sep 19
Full
Sep 26
Last Quarter
Oct 4
New
Oct 11
First Quarter

Hourly Weather History & Observations

Time (CDT) Temp. Dew Point Humidity Pressure Visibility Wind Dir Wind Speed Gust Speed Precip Events Conditions
12:15 AM 61.7 °F 54.5 °F 77% 30.26 in 10.0 mi NE 5.8 mph - N/A   Overcast
12:35 AM 61.3 °F 54.3 °F 78% 30.26 in 10.0 mi NE 4.6 mph - N/A   Overcast
12:55 AM 61.3 °F 54.3 °F 78% 30.27 in 10.0 mi NE 4.6 mph - N/A   Overcast
1:15 AM 61.3 °F 54.5 °F 78% 30.26 in 10.0 mi NE 5.8 mph - N/A   Overcast
1:35 AM 61.7 °F 53.4 °F 74% 30.26 in 10.0 mi ENE 9.2 mph - N/A   Overcast
1:55 AM 61.9 °F 52.9 °F 72% 30.26 in 10.0 mi East 4.6 mph - N/A   Overcast
2:15 AM 61.9 °F 52.2 °F 70% 30.26 in 10.0 mi East 5.8 mph - N/A   Overcast
2:35 AM 61.7 °F 51.8 °F 70% 30.26 in 10.0 mi ENE 6.9 mph - N/A   Overcast
2:55 AM 60.8 °F 51.4 °F 71% 30.27 in 10.0 mi ENE 5.8 mph - N/A   Overcast
3:15 AM 58.3 °F 51.6 °F 78% 30.27 in 10.0 mi East 4.6 mph - N/A   Overcast
3:35 AM 57.0 °F 51.8 °F 83% 30.27 in 10.0 mi ENE 4.6 mph - N/A   Mostly Cloudy
3:55 AM 57.4 °F 52.5 °F 84% 30.26 in 10.0 mi ENE 3.5 mph - N/A   Overcast
4:15 AM 58.1 °F 52.7 °F 82% 30.27 in 10.0 mi ENE 3.5 mph - N/A   Overcast
4:35 AM 58.5 °F 52.9 °F 82% 30.27 in 10.0 mi ENE 3.5 mph - N/A   Overcast
4:55 AM 59.4 °F 52.7 °F 79% 30.28 in 10.0 mi Calm Calm - N/A   Overcast
5:15 AM 59.5 °F 52.9 °F 79% 30.28 in 10.0 mi Calm Calm - N/A   Overcast
5:35 AM 59.2 °F 53.1 °F 80% 30.28 in 10.0 mi Calm Calm - N/A   Overcast
5:55 AM 58.1 °F 54.1 °F 87% 30.28 in 10.0 mi NNE 4.6 mph - N/A   Overcast
6:15 AM 57.4 °F 53.1 °F 85% 30.28 in 10.0 mi NE 4.6 mph - N/A   Mostly Cloudy
6:35 AM 57.4 °F 52.7 °F 84% 30.28 in 10.0 mi ENE 6.9 mph - N/A   Scattered Clouds
6:55 AM 55.9 °F 52.2 °F 87% 30.29 in 10.0 mi NNE 5.8 mph - N/A   Clear
7:15 AM 55.2 °F 52.0 °F 89% 30.29 in 10.0 mi NE 4.6 mph - N/A   Clear
7:35 AM 54.5 °F 51.8 °F 91% 30.30 in 10.0 mi NE 4.6 mph - N/A   Clear
7:55 AM 55.2 °F 52.7 °F 91% 30.30 in 10.0 mi NE 5.8 mph - N/A   Clear
8:15 AM 57.0 °F 53.2 °F 87% 30.31 in 10.0 mi NE 8.1 mph - N/A   Clear
8:35 AM 57.6 °F 53.4 °F 86% 30.31 in 10.0 mi ENE 8.1 mph - N/A   Clear
8:55 AM 59.2 °F 53.8 °F 82% 30.31 in 10.0 mi East 6.9 mph - N/A   Scattered Clouds
9:15 AM 60.4 °F 54.1 °F 80% 30.31 in 10.0 mi East 10.4 mph - N/A   Scattered Clouds
9:35 AM 62.1 °F 54.1 °F 75% 30.32 in 10.0 mi ENE 10.4 mph - N/A   Clear
9:55 AM 63.1 °F 52.7 °F 69% 30.33 in 10.0 mi East 10.4 mph 16.1 mph N/A   Clear
10:15 AM 62.4 °F 52.9 °F 71% 30.32 in 10.0 mi East 11.5 mph - N/A   Mostly Cloudy
10:35 AM 63.3 °F 52.2 °F 67% 30.33 in 10.0 mi ESE 5.8 mph - N/A   Overcast
10:55 AM 64.2 °F 51.3 °F 63% 30.33 in 10.0 mi ESE 12.7 mph 18.4 mph N/A   Overcast
11:15 AM 63.0 °F 51.4 °F 66% 30.33 in 10.0 mi East 13.8 mph - N/A   Overcast
11:35 AM 62.6 °F 51.8 °F 68% 30.33 in 10.0 mi ESE 12.7 mph - N/A   Overcast
11:55 AM 62.8 °F 52.3 °F 69% 30.33 in 10.0 mi East 9.2 mph - N/A   Overcast
12:15 PM 63.1 °F 52.2 °F 67% 30.32 in 10.0 mi ESE 10.4 mph - N/A   Overcast
12:35 PM 64.0 °F 52.9 °F 67% 30.31 in 10.0 mi East 10.4 mph 16.1 mph N/A   Overcast
12:55 PM 66.2 °F 52.9 °F 62% 30.31 in 10.0 mi East 15.0 mph - N/A   Overcast
1:15 PM 65.3 °F 52.0 °F 62% 30.30 in 10.0 mi ESE 9.2 mph - N/A   Overcast
1:35 PM 66.6 °F 52.7 °F 61% 30.29 in 10.0 mi ESE 11.5 mph 19.6 mph N/A   Overcast
1:55 PM 67.1 °F 52.5 °F 59% 30.29 in 10.0 mi East 15.0 mph 18.4 mph N/A   Mostly Cloudy
2:15 PM 67.5 °F 52.5 °F 59% 30.27 in 10.0 mi North - - N/A   Mostly Cloudy
2:35 PM 67.6 °F 52.3 °F 58% 30.26 in 10.0 mi ESE 13.8 mph 17.3 mph N/A   Mostly Cloudy
2:55 PM 69.6 °F 52.7 °F 55% 30.26 in 10.0 mi ESE 12.7 mph - N/A   Scattered Clouds
3:15 PM 68.5 °F 52.7 °F 57% 30.25 in 10.0 mi ESE 11.5 mph 17.3 mph N/A   Scattered Clouds
3:35 PM 68.2 °F 53.1 °F 58% 30.24 in 10.0 mi ESE 15.0 mph 19.6 mph N/A   Scattered Clouds
3:55 PM 67.3 °F 52.7 °F 59% 30.23 in 10.0 mi ESE 11.5 mph - N/A   Clear
4:15 PM 67.5 °F 52.9 °F 59% 30.22 in 10.0 mi ESE 13.8 mph - N/A   Mostly Cloudy
4:35 PM 67.1 °F 52.7 °F 60% 30.21 in 10.0 mi East 12.7 mph - N/A   Overcast
4:55 PM 66.7 °F 52.9 °F 61% 30.21 in 10.0 mi East 11.5 mph 17.3 mph N/A   Overcast
5:15 PM 66.4 °F 53.2 °F 63% 30.20 in 10.0 mi East 11.5 mph 18.4 mph N/A   Overcast
5:35 PM 66.2 °F 53.6 °F 64% 30.21 in 10.0 mi East 8.1 mph - N/A   Overcast
5:55 PM 65.7 °F 53.8 °F 65% 30.20 in 10.0 mi ESE 9.2 mph - N/A   Overcast
6:15 PM 65.3 °F 52.9 °F 64% 30.20 in 10.0 mi ESE 9.2 mph 16.1 mph N/A   Overcast
6:35 PM 64.8 °F 53.6 °F 67% 30.20 in 10.0 mi ESE 9.2 mph - N/A   Overcast
6:55 PM 64.2 °F 53.4 °F 68% 30.20 in 10.0 mi SE 10.4 mph - N/A   Overcast
7:15 PM 63.5 °F 53.8 °F 71% 30.20 in 10.0 mi SE 11.5 mph - N/A   Overcast
7:35 PM 62.8 °F 54.0 °F 73% 30.20 in 10.0 mi SE 6.9 mph - N/A   Overcast
7:55 PM 59.2 °F 55.8 °F 88% 30.21 in 5.0 mi SSE 6.9 mph - 0.07 in Rain Heavy Rain
8:15 PM 58.5 °F 55.9 °F 91% 30.21 in 5.0 mi ESE 4.6 mph - 0.07 in Rain Rain
8:35 PM 58.5 °F 56.3 °F 93% 30.21 in 7.0 mi ESE 5.8 mph - 0.09 in Rain Light Rain
8:55 PM 58.5 °F 55.8 °F 91% 30.21 in 10.0 mi East 4.6 mph - 0.10 in   Light Drizzle
9:15 PM 58.6 °F 56.3 °F 92% 30.21 in 10.0 mi ESE 3.5 mph - N/A   Overcast
9:35 PM 59.0 °F 55.6 °F 88% 30.21 in 10.0 mi ESE 6.9 mph - N/A   Overcast
9:55 PM 58.6 °F 55.4 °F 89% 30.22 in 10.0 mi ESE 8.1 mph - N/A   Overcast
10:15 PM 59.0 °F 55.0 °F 87% 30.22 in 10.0 mi ESE 5.8 mph - N/A   Overcast
10:35 PM 59.0 °F 55.0 °F 87% 30.21 in 10.0 mi ESE 5.8 mph - N/A   Overcast
10:55 PM 58.8 °F 55.4 °F 88% 30.21 in 10.0 mi SE 4.6 mph - N/A Rain Light Rain
11:15 PM 58.5 °F 55.8 °F 91% 30.21 in 10.0 mi SE 4.6 mph - N/A Rain Rain
11:35 PM 58.5 °F 55.6 °F 90% 30.21 in 10.0 mi SE 5.8 mph - 0.01 in Rain Rain
11:55 PM 58.5 °F 55.8 °F 91% 30.20 in 10.0 mi SE 5.8 mph - 0.01 in   Drizzle